createdAt,value
2018-02-22T00:00:51.628Z,-2.60
2018-02-22T00:03:18.585Z,-2.70
2018-02-22T00:05:44.776Z,-2.70
2018-02-22T00:08:10.992Z,-2.70
2018-02-22T00:10:37.185Z,-2.80
2018-02-22T00:13:03.400Z,-2.80
2018-02-22T00:15:29.592Z,-2.80
2018-02-22T00:17:56.237Z,-2.80
2018-02-22T00:20:22.424Z,-2.90
2018-02-22T00:22:48.964Z,-2.90
2018-02-22T00:25:15.151Z,-2.90
2018-02-22T00:27:42.104Z,-3.00
2018-02-22T00:30:08.323Z,-3.00
2018-02-22T00:32:35.253Z,-3.00
2018-02-22T00:35:02.220Z,-3.10
2018-02-22T00:37:28.411Z,-3.10
2018-02-22T00:39:56.112Z,-3.10
2018-02-22T00:42:22.312Z,-3.10
2018-02-22T00:44:48.533Z,-3.10
2018-02-22T00:47:14.728Z,-3.10
2018-02-22T00:49:40.948Z,-3.20
2018-02-22T00:52:07.487Z,-3.20
2018-02-22T00:54:33.699Z,-3.20
2018-02-22T00:56:59.887Z,-3.30
2018-02-22T00:59:27.607Z,-3.30
2018-02-22T01:01:53.800Z,-3.40
2018-02-22T01:04:20.731Z,-3.30
2018-02-22T01:06:46.944Z,-3.40
2018-02-22T01:09:13.140Z,-3.40
2018-02-22T01:11:39.367Z,-3.40
2018-02-22T01:14:05.585Z,-3.40
2018-02-22T01:16:31.805Z,-3.50
2018-02-22T01:18:58.011Z,-3.50
2018-02-22T01:21:24.968Z,-3.60
2018-02-22T01:23:51.901Z,-3.70
2018-02-22T01:26:19.016Z,-3.70
2018-02-22T01:28:45.204Z,-3.70
2018-02-22T01:31:11.396Z,-3.70
2018-02-22T01:33:37.613Z,-3.70
2018-02-22T01:36:03.805Z,-3.80
2018-02-22T01:38:30.021Z,-3.80
2018-02-22T01:40:56.216Z,-3.80
2018-02-22T01:43:22.441Z,-3.90
2018-02-22T01:45:48.637Z,-3.90
2018-02-22T01:48:15.163Z,-3.90
2018-02-22T01:50:41.416Z,-3.90
2018-02-22T01:53:07.631Z,-3.90
2018-02-22T01:55:33.816Z,-3.90
2018-02-22T01:58:00.780Z,-3.90
2018-02-22T02:00:26.956Z,-3.90
2018-02-22T02:02:53.172Z,-3.90
2018-02-22T02:05:19.356Z,-3.90
2018-02-22T02:07:45.572Z,-3.90
2018-02-22T02:10:12.505Z,-3.90
2018-02-22T02:12:39.117Z,-4.00
2018-02-22T02:15:07.496Z,-3.90
2018-02-22T02:17:34.008Z,-4.00
2018-02-22T02:20:00.207Z,-3.90
2018-02-22T02:22:26.437Z,-3.90
2018-02-22T02:24:52.633Z,-3.90
2018-02-22T02:27:18.852Z,-3.90
2018-02-22T02:29:45.051Z,-3.80
2018-02-22T02:32:11.280Z,-3.80
2018-02-22T02:34:37.473Z,-3.80
2018-02-22T02:37:04.432Z,-3.80
2018-02-22T02:39:30.620Z,-3.80
2018-02-22T02:41:56.845Z,-3.80
2018-02-22T02:44:23.084Z,-3.80
2018-02-22T02:46:49.272Z,-3.80
2018-02-22T02:49:15.494Z,-3.80
2018-02-22T02:51:42.184Z,-3.80
2018-02-22T02:54:08.408Z,-3.80
2018-02-22T02:56:34.594Z,-3.80
2018-02-22T02:59:00.809Z,-3.80
2018-02-22T03:01:27.004Z,-3.80
2018-02-22T03:03:53.960Z,-3.80
2018-02-22T03:06:20.901Z,-3.80
2018-02-22T03:08:47.858Z,-3.80
2018-02-22T03:11:14.787Z,-3.80
2018-02-22T03:13:41.753Z,-3.80
2018-02-22T03:16:08.684Z,-3.90
2018-02-22T03:18:35.639Z,-3.80
2018-02-22T03:21:02.577Z,-3.80
2018-02-22T03:23:29.536Z,-3.70
2018-02-22T03:25:55.736Z,-3.80
2018-02-22T03:28:23.441Z,-3.60
2018-02-22T03:30:49.633Z,-3.60
2018-02-22T03:33:15.853Z,-3.50
2018-02-22T03:35:42.037Z,-3.40
2018-02-22T03:38:08.329Z,-3.30
2018-02-22T03:40:35.266Z,-3.20
2018-02-22T03:43:01.483Z,-3.20
2018-02-22T03:45:28.429Z,-3.00
2018-02-22T03:47:54.645Z,-3.00
2018-02-22T03:50:20.860Z,-3.00
2018-02-22T03:52:47.108Z,-2.90
2018-02-22T03:55:13.297Z,-2.90
2018-02-22T03:57:39.520Z,-2.80
2018-02-22T04:00:05.740Z,-2.80
2018-02-22T04:02:32.699Z,-2.70
2018-02-22T04:04:58.896Z,-2.80
2018-02-22T04:07:25.857Z,-2.70
2018-02-22T04:09:52.840Z,-2.70
2018-02-22T04:12:19.027Z,-2.80
2018-02-22T04:14:45.989Z,-2.70
2018-02-22T04:17:12.176Z,-2.70
2018-02-22T04:19:38.411Z,-2.70
2018-02-22T04:22:04.608Z,-2.70
2018-02-22T04:24:30.823Z,-2.70
2018-02-22T04:26:57.017Z,-2.70
2018-02-22T04:29:23.989Z,-2.70
2018-02-22T04:31:50.176Z,-2.70
2018-02-22T04:34:17.139Z,-2.70
2018-02-22T04:36:50.915Z,-2.80
2018-02-22T04:39:17.129Z,-2.80
2018-02-22T04:41:43.331Z,-2.70
2018-02-22T04:44:09.556Z,-2.70
2018-02-22T04:46:35.742Z,-2.70
2018-02-22T04:49:01.977Z,-2.70
2018-02-22T04:51:28.944Z,-2.60
2018-02-22T04:53:55.156Z,-2.70
2018-02-22T04:56:22.084Z,-2.70
2018-02-22T04:58:48.323Z,-2.70
2018-02-22T05:01:16.080Z,-2.80
2018-02-22T05:03:42.305Z,-2.80
2018-02-22T05:06:10.045Z,-2.80
2018-02-22T05:08:36.269Z,-2.80
2018-02-22T05:11:02.457Z,-2.70
2018-02-22T05:13:29.420Z,-2.70
2018-02-22T05:15:55.608Z,-2.70
2018-02-22T05:18:22.025Z,-2.70
2018-02-22T05:20:48.212Z,-2.70
2018-02-22T05:23:14.400Z,-2.70
2018-02-22T05:25:40.616Z,-2.70
2018-02-22T05:28:07.280Z,-2.70
2018-02-22T05:30:34.236Z,-2.70
2018-02-22T05:33:01.168Z,-2.70
2018-02-22T05:35:28.119Z,-2.70
2018-02-22T05:37:55.061Z,-2.70
2018-02-22T05:42:46.096Z,-2.80
2018-02-22T05:45:13.056Z,-2.80
2018-02-22T05:47:39.244Z,-2.80
2018-02-22T05:50:05.473Z,-2.80
2018-02-22T05:52:31.689Z,-2.90
2018-02-22T05:54:57.913Z,-2.90
2018-02-22T05:57:24.095Z,-2.90
2018-02-22T05:59:50.316Z,-2.80
2018-02-22T06:02:17.257Z,-2.80
2018-02-22T06:04:44.221Z,-2.80
2018-02-22T06:07:10.416Z,-2.90
2018-02-22T06:09:36.641Z,-2.80
2018-02-22T06:12:02.828Z,-2.90
2018-02-22T06:14:29.073Z,-2.80
2018-02-22T06:16:55.269Z,-2.90
2018-02-22T06:19:21.499Z,-2.90
2018-02-22T06:21:47.716Z,-2.80
2018-02-22T06:24:13.915Z,-2.80
2018-02-22T06:26:40.132Z,-2.80
2018-02-22T06:29:06.320Z,-2.80
2018-02-22T06:31:32.550Z,-2.80
2018-02-22T06:33:58.768Z,-2.80
2018-02-22T06:36:24.993Z,-2.80
2018-02-22T06:38:51.184Z,-2.80
2018-02-22T06:41:17.407Z,-2.80
2018-02-22T06:43:43.592Z,-2.80
2018-02-22T06:46:10.063Z,-2.70
2018-02-22T06:48:36.256Z,-2.70
2018-02-22T06:51:02.475Z,-2.60
2018-02-22T06:53:28.700Z,-2.60
2018-02-22T06:55:54.893Z,-2.60
2018-02-22T06:58:21.112Z,-2.60
2018-02-22T07:00:47.325Z,-2.60
2018-02-22T07:03:13.544Z,-2.60
2018-02-22T07:05:39.731Z,-2.60
2018-02-22T07:08:05.967Z,-2.50
2018-02-22T07:10:32.161Z,-2.60
2018-02-22T07:12:58.381Z,-2.60
2018-02-22T07:15:24.576Z,-2.50
2018-02-22T07:17:50.801Z,-2.30
2018-02-22T07:20:17.072Z,-2.00
2018-02-22T07:22:44.052Z,-1.80
2018-02-22T07:25:10.989Z,-1.80
2018-02-22T07:27:37.953Z,-1.80
2018-02-22T07:30:04.145Z,-1.80
2018-02-22T07:32:31.104Z,-1.80
2018-02-22T07:34:58.960Z,-1.70
2018-02-22T07:37:25.180Z,-1.80
2018-02-22T07:39:51.373Z,-1.60
2018-02-22T07:42:17.591Z,-1.50
2018-02-22T07:44:43.780Z,-0.80
2018-02-22T07:47:17.064Z,-0.40
2018-02-22T07:49:43.257Z,-0.30
2018-02-22T07:52:09.509Z,-0.30
2018-02-22T07:54:35.709Z,0.30
2018-02-22T07:57:01.925Z,0.30
2018-02-22T07:59:28.112Z,0.20
2018-02-22T08:01:54.377Z,0.20
2018-02-22T08:04:21.288Z,1.50
2018-02-22T08:06:47.524Z,1.40
2018-02-22T08:09:13.712Z,1.50
2018-02-22T08:11:39.940Z,2.00
2018-02-22T08:14:06.128Z,2.80
2018-02-22T08:16:33.100Z,4.20
2018-02-22T08:18:59.300Z,4.20
2018-02-22T08:21:26.512Z,3.70
2018-02-22T08:23:52.699Z,3.60
2018-02-22T08:26:18.902Z,3.10
2018-02-22T08:28:46.204Z,2.40
2018-02-22T08:31:12.421Z,2.30
2018-02-22T08:33:38.696Z,2.40
2018-02-22T08:36:04.884Z,2.30
2018-02-22T08:38:31.103Z,2.50
2018-02-22T08:40:57.293Z,2.10
2018-02-22T08:43:23.670Z,1.50
2018-02-22T08:45:49.944Z,1.10
2018-02-22T08:48:16.156Z,1.20
2018-02-22T08:50:42.380Z,1.50
2018-02-22T08:53:08.606Z,1.90
2018-02-22T08:55:41.834Z,2.00
2018-02-22T08:58:08.044Z,3.00
2018-02-22T09:00:34.244Z,3.60
2018-02-22T09:03:00.464Z,4.30
2018-02-22T09:05:26.653Z,4.30
2018-02-22T09:07:53.621Z,5.40
2018-02-22T09:10:19.816Z,5.30
2018-02-22T09:12:46.096Z,6.50
2018-02-22T09:15:12.284Z,7.70
2018-02-22T09:17:38.505Z,8.80
2018-02-22T09:20:04.697Z,8.60
2018-02-22T09:22:30.997Z,7.40
2018-02-22T09:24:57.188Z,6.80
2018-02-22T09:27:23.684Z,7.50
2018-02-22T09:29:49.942Z,8.10
2018-02-22T09:32:16.174Z,7.70
2018-02-22T09:34:42.356Z,7.20
2018-02-22T09:37:08.572Z,6.90
2018-02-22T09:39:35.501Z,5.30
2018-02-22T09:42:02.491Z,4.40
2018-02-22T09:44:28.676Z,4.40
2018-02-22T09:46:55.616Z,3.90
2018-02-22T09:49:21.841Z,3.80
2018-02-22T09:51:48.060Z,3.70
2018-02-22T09:54:14.278Z,4.30
2018-02-22T09:56:40.468Z,4.70
2018-02-22T09:59:06.688Z,5.90
2018-02-22T10:01:32.875Z,7.50
2018-02-22T10:03:59.123Z,8.30
2018-02-22T10:06:26.048Z,11.40
2018-02-22T10:08:52.272Z,11.30
2018-02-22T10:11:18.573Z,11.30
2018-02-22T10:13:44.809Z,12.00
2018-02-22T10:16:11.188Z,12.10
2018-02-22T10:18:38.180Z,12.30
2018-02-22T10:21:04.368Z,12.30
2018-02-22T10:23:31.345Z,13.40
2018-02-22T10:25:57.535Z,13.30
2018-02-22T10:28:23.747Z,13.60
2018-02-22T10:30:49.969Z,14.30
2018-02-22T10:33:16.197Z,14.10
2018-02-22T10:35:42.389Z,14.30
2018-02-22T10:38:08.610Z,13.80
2018-02-22T10:40:34.821Z,13.10
2018-02-22T10:43:01.793Z,15.50
2018-02-22T10:45:28.042Z,15.40
2018-02-22T10:47:54.328Z,15.10
2018-02-22T10:50:21.310Z,12.40
2018-02-22T10:52:47.525Z,12.40
2018-02-22T10:55:13.709Z,10.70
2018-02-22T10:57:40.129Z,9.00
2018-02-22T11:00:06.332Z,8.70
2018-02-22T11:02:38.841Z,7.20
2018-02-22T11:05:05.066Z,5.60
2018-02-22T11:07:31.264Z,4.30
2018-02-22T11:09:57.479Z,4.20
2018-02-22T11:12:30.739Z,5.10
2018-02-22T11:14:56.952Z,5.10
2018-02-22T11:17:23.137Z,5.00
2018-02-22T11:19:49.363Z,4.30
2018-02-22T11:22:15.560Z,3.80
2018-02-22T11:24:42.592Z,4.70
2018-02-22T11:27:08.775Z,4.70
2018-02-22T11:29:34.999Z,5.10
2018-02-22T11:32:01.189Z,7.20
2018-02-22T11:34:28.149Z,7.40
2018-02-22T11:36:55.088Z,7.10
2018-02-22T11:39:22.045Z,7.50
2018-02-22T11:41:48.995Z,7.00
2018-02-22T11:44:15.220Z,7.00
2018-02-22T11:46:41.421Z,6.00
2018-02-22T11:49:07.643Z,5.00
2018-02-22T11:51:33.860Z,4.30
2018-02-22T11:54:00.088Z,3.60
2018-02-22T11:56:26.280Z,3.30
2018-02-22T11:58:52.500Z,2.70
2018-02-22T12:01:18.704Z,2.30
2018-02-22T12:03:45.673Z,3.50
2018-02-22T12:06:11.861Z,3.50
2018-02-22T12:08:38.072Z,3.70
2018-02-22T12:11:04.283Z,3.10
2018-02-22T12:13:30.509Z,2.80
2018-02-22T12:15:56.708Z,5.30
2018-02-22T12:18:23.671Z,9.30
2018-02-22T12:20:49.861Z,9.20
2018-02-22T12:23:16.085Z,10.40
2018-02-22T12:25:42.275Z,11.00
2018-02-22T12:28:08.488Z,10.40
2018-02-22T12:30:34.681Z,8.80
2018-02-22T12:33:01.808Z,9.00
2018-02-22T12:35:27.996Z,9.00
2018-02-22T12:37:54.188Z,7.30
2018-02-22T12:40:21.147Z,8.20
2018-02-22T12:42:47.344Z,8.20
2018-02-22T12:45:13.562Z,10.10
2018-02-22T12:47:39.753Z,9.80
2018-02-22T12:50:05.969Z,10.60
2018-02-22T12:52:32.925Z,13.90
2018-02-22T12:54:59.142Z,13.80
2018-02-22T12:57:26.068Z,12.40
2018-02-22T12:59:52.297Z,12.40
2018-02-22T13:02:19.246Z,13.20
2018-02-22T13:04:46.536Z,12.10
2018-02-22T13:07:12.727Z,12.10
2018-02-22T13:09:39.709Z,8.80
2018-02-22T13:12:05.908Z,8.70
2018-02-22T13:14:32.868Z,5.50
2018-02-22T13:16:59.801Z,4.60
2018-02-22T13:19:26.760Z,5.30
2018-02-22T13:21:53.692Z,7.00
2018-02-22T13:24:19.899Z,7.00
2018-02-22T13:26:46.860Z,10.10
2018-02-22T13:29:20.688Z,10.70
2018-02-22T13:31:47.616Z,10.60
2018-02-22T13:34:27.560Z,10.60
2018-02-22T13:36:54.493Z,11.70
2018-02-22T13:39:20.712Z,11.70
2018-02-22T13:41:46.896Z,12.00
2018-02-22T13:44:25.600Z,11.70
2018-02-22T13:46:52.527Z,9.90
2018-02-22T13:49:31.080Z,9.80
2018-02-22T13:51:57.296Z,9.70
2018-02-22T13:54:24.311Z,9.40
2018-02-22T13:57:02.860Z,9.40
2018-02-22T13:59:29.856Z,9.60
2018-02-22T14:02:08.301Z,9.50
2018-02-22T14:04:34.525Z,9.20
2018-02-22T14:07:00.747Z,9.70
2018-02-22T14:09:26.968Z,10.20
2018-02-22T14:11:53.184Z,10.60
2018-02-22T14:14:19.417Z,10.10
2018-02-22T14:16:45.604Z,10.30
2018-02-22T14:19:12.150Z,9.80
2018-02-22T14:21:38.331Z,10.00
2018-02-22T14:24:05.293Z,8.60
2018-02-22T14:26:31.512Z,8.60
2018-02-22T14:28:57.701Z,8.10
2018-02-22T14:31:23.929Z,7.80
2018-02-22T14:33:50.108Z,7.20
2018-02-22T14:36:17.068Z,7.10
2018-02-22T14:38:44.000Z,7.20
2018-02-22T14:41:11.021Z,6.90
2018-02-22T14:43:37.212Z,6.90
2018-02-22T14:46:03.452Z,7.00
2018-02-22T14:48:29.642Z,7.00
2018-02-22T14:50:56.612Z,6.30
2018-02-22T14:53:22.804Z,6.30
2018-02-22T14:55:49.772Z,5.70
2018-02-22T14:58:16.696Z,5.80
2018-02-22T15:00:48.933Z,5.80
2018-02-22T15:03:15.153Z,5.80
2018-02-22T15:05:41.404Z,5.70
2018-02-22T15:08:07.597Z,5.50
2018-02-22T15:10:33.821Z,5.30
2018-02-22T15:13:00.036Z,5.10
2018-02-22T15:15:26.256Z,4.60
2018-02-22T15:17:53.189Z,4.20
2018-02-22T15:20:20.241Z,4.40
2018-02-22T15:22:47.177Z,4.60
2018-02-22T15:25:14.124Z,4.30
2018-02-22T15:27:40.344Z,4.30
2018-02-22T15:30:06.537Z,3.90
2018-02-22T15:32:32.757Z,3.30
2018-02-22T15:34:58.949Z,2.90
2018-02-22T15:37:25.912Z,2.80
2018-02-22T15:39:52.105Z,2.80
2018-02-22T15:42:18.324Z,3.00
2018-02-22T15:44:44.516Z,3.00
2018-02-22T15:47:10.744Z,2.80
2018-02-22T15:49:36.932Z,2.60
2018-02-22T15:52:03.148Z,2.50
2018-02-22T15:54:29.344Z,2.20
2018-02-22T15:56:55.560Z,2.10
2018-02-22T15:59:21.749Z,2.30
2018-02-22T16:01:48.715Z,2.30
2018-02-22T16:04:14.911Z,2.30
2018-02-22T16:06:41.162Z,2.10
2018-02-22T16:09:08.084Z,1.50
2018-02-22T16:11:34.308Z,1.50
2018-02-22T16:14:00.502Z,1.20
2018-02-22T16:16:26.724Z,1.00
2018-02-22T16:18:52.912Z,0.90
2018-02-22T16:21:19.191Z,0.80
2018-02-22T16:23:45.384Z,0.80
2018-02-22T16:26:12.311Z,0.40
2018-02-22T16:28:38.532Z,0.40
2018-02-22T16:31:04.708Z,0.20
2018-02-22T16:33:30.957Z,-0.10
2018-02-22T16:35:57.161Z,-0.30
2018-02-22T16:38:23.380Z,-0.50
2018-02-22T16:40:49.572Z,-0.70
2018-02-22T16:43:15.801Z,-0.80
2018-02-22T16:45:41.988Z,-0.90
2018-02-22T16:48:08.528Z,-0.90
2018-02-22T16:50:35.164Z,-1.00
2018-02-22T16:53:01.385Z,-1.00
2018-02-22T16:55:27.588Z,-1.10
2018-02-22T16:57:53.824Z,-1.20
2018-02-22T17:00:20.764Z,-1.30
2018-02-22T17:02:47.721Z,-1.40
2018-02-22T17:05:13.910Z,-1.40
2018-02-22T17:07:40.158Z,-1.40
2018-02-22T17:10:07.096Z,-1.50
2018-02-22T17:12:33.325Z,-1.50
2018-02-22T17:14:59.521Z,-1.60
2018-02-22T17:17:45.663Z,-1.60
2018-02-22T17:20:12.604Z,-1.70
2018-02-22T17:22:39.543Z,-1.70
2018-02-22T17:25:05.996Z,-1.70
2018-02-22T17:27:39.323Z,-1.60
2018-02-22T17:30:11.613Z,-1.70
2018-02-22T17:32:37.820Z,-1.60
2018-02-22T17:35:06.029Z,-1.60
2018-02-22T17:37:32.240Z,-1.50
2018-02-22T17:40:02.320Z,-1.50
2018-02-22T17:42:31.509Z,-1.50
2018-02-22T17:44:58.492Z,-1.30
2018-02-22T17:47:24.696Z,-1.40
2018-02-22T17:49:50.917Z,-1.30
2018-02-22T17:52:17.844Z,-1.20
2018-02-22T17:54:44.769Z,-1.30
2018-02-22T17:57:11.756Z,-1.10
2018-02-22T17:59:39.377Z,-1.10
2018-02-22T18:02:07.039Z,-1.10
2018-02-22T18:04:33.581Z,-1.10
2018-02-22T18:07:01.341Z,-1.00
2018-02-22T18:09:29.110Z,-0.90
2018-02-22T18:11:57.354Z,-0.90
2018-02-22T18:14:24.430Z,-0.90
2018-02-22T18:16:51.992Z,-0.80
2018-02-22T18:19:20.679Z,-0.80
2018-02-22T18:21:47.657Z,-0.80
2018-02-22T18:24:14.629Z,-0.80
2018-02-22T18:26:40.823Z,-0.80
2018-02-22T18:29:07.096Z,-0.80
2018-02-22T18:31:33.284Z,-0.80
2018-02-22T18:33:59.477Z,-0.80
2018-02-22T18:36:25.721Z,-0.80
2018-02-22T18:41:52.515Z,-0.80
2018-02-22T18:44:25.601Z,-0.80
2018-02-22T18:46:52.549Z,-0.80
2018-02-22T18:49:19.516Z,-0.80
2018-02-22T18:51:45.708Z,-0.90
2018-02-22T18:54:11.948Z,-0.80
2018-02-22T18:56:38.872Z,-1.00
2018-02-22T18:59:05.056Z,-1.00
2018-02-22T19:01:31.296Z,-1.00
2018-02-22T19:03:57.510Z,-1.00
2018-02-22T19:06:23.728Z,-1.00
2018-02-22T19:08:49.925Z,-1.00
2018-02-22T19:11:16.884Z,-1.00
2018-02-22T19:13:43.816Z,-1.00
2018-02-22T19:16:10.750Z,-1.00
2018-02-22T19:18:37.727Z,-1.00
2018-02-22T19:21:04.695Z,-1.00
2018-02-22T19:23:30.896Z,-1.00
2018-02-22T19:25:57.935Z,-1.00
2018-02-22T19:28:24.315Z,-1.00
2018-02-22T19:30:50.540Z,-1.00
2018-02-22T19:33:16.728Z,-1.00
2018-02-22T19:35:42.953Z,-1.00
2018-02-22T19:38:09.891Z,-1.00
2018-02-22T19:40:37.595Z,-1.10
2018-02-22T19:43:03.791Z,-1.10
2018-02-22T19:45:30.024Z,-1.10
2018-02-22T19:47:56.213Z,-1.10
2018-02-22T19:50:22.436Z,-1.10
2018-02-22T19:52:48.667Z,-1.10
2018-02-22T19:55:14.880Z,-1.10
2018-02-22T19:57:41.076Z,-1.10
2018-02-22T20:00:08.036Z,-1.10
2018-02-22T20:02:34.968Z,-1.10
2018-02-22T20:05:01.933Z,-1.20
2018-02-22T20:07:28.151Z,-1.20
2018-02-22T20:09:55.108Z,-1.30
2018-02-22T20:12:21.308Z,-1.30
2018-02-22T20:14:47.500Z,-1.30
2018-02-22T20:17:13.729Z,-1.40
2018-02-22T20:19:39.923Z,-1.60
2018-02-22T20:22:06.149Z,-1.70
2018-02-22T20:24:32.344Z,-1.90
2018-02-22T20:26:58.565Z,-1.90
2018-02-22T20:29:24.752Z,-2.00
2018-02-22T20:31:50.973Z,-1.90
2018-02-22T20:34:17.164Z,-2.00
2018-02-22T20:36:43.412Z,-2.00
2018-02-22T20:39:10.339Z,-1.90
2018-02-22T20:41:36.560Z,-1.90
2018-02-22T20:44:02.753Z,-1.90
2018-02-22T20:46:28.980Z,-1.90
2018-02-22T20:48:55.171Z,-1.90
2018-02-22T20:51:22.160Z,-1.80
2018-02-22T20:53:48.373Z,-1.80
2018-02-22T20:56:14.612Z,-1.80
2018-02-22T20:58:40.827Z,-1.80
2018-02-22T21:01:07.044Z,-1.80
2018-02-22T21:03:36.149Z,-1.70
2018-02-22T21:06:02.360Z,-1.70
2018-02-22T21:08:29.320Z,-1.70
2018-02-22T21:10:55.603Z,-1.70
2018-02-22T21:13:21.792Z,-1.70
2018-02-22T21:15:48.003Z,-1.70
2018-02-22T21:18:14.196Z,-1.70
2018-02-22T21:20:40.430Z,-1.70
2018-02-22T21:23:06.624Z,-1.70
2018-02-22T21:25:32.844Z,-1.70
2018-02-22T21:27:59.075Z,-1.80
2018-02-22T21:30:25.335Z,-1.80
2018-02-22T21:32:51.524Z,-1.80
2018-02-22T21:35:17.712Z,-1.80
2018-02-22T21:37:43.932Z,-1.80
2018-02-22T21:40:10.129Z,-1.80
2018-02-22T21:42:36.347Z,-1.90
2018-02-22T21:45:02.532Z,-1.90
2018-02-22T21:47:29.492Z,-1.90
2018-02-22T21:49:56.425Z,-2.00
2018-02-22T21:52:23.392Z,-2.10
2018-02-22T21:54:49.584Z,-2.10
2018-02-22T21:57:15.812Z,-2.10
2018-02-22T21:59:42.012Z,-2.10
2018-02-22T22:02:08.276Z,-2.10
2018-02-22T22:04:34.532Z,-2.10
2018-02-22T22:07:00.795Z,-2.20
2018-02-22T22:09:26.989Z,-2.10
2018-02-22T22:11:53.955Z,-2.10
2018-02-22T22:14:20.142Z,-2.10
2018-02-22T22:16:46.365Z,-2.10
2018-02-22T22:19:12.552Z,-2.20
2018-02-22T22:21:38.776Z,-2.20
2018-02-22T22:24:12.015Z,-2.10
2018-02-22T22:26:38.233Z,-2.10
2018-02-22T22:29:04.444Z,-2.10
2018-02-22T22:31:30.660Z,-2.10
2018-02-22T22:33:56.845Z,-2.10
2018-02-22T22:36:23.803Z,-2.20
2018-02-22T22:38:49.992Z,-2.20
2018-02-22T22:41:16.208Z,-2.30
2018-02-22T22:43:42.391Z,-2.20
2018-02-22T22:46:08.612Z,-2.30
2018-02-22T22:48:35.544Z,-2.40
2018-02-22T22:51:02.504Z,-2.40
2018-02-22T22:53:29.431Z,-2.40
2018-02-22T22:55:55.648Z,-2.50
2018-02-22T22:58:21.839Z,-2.50
2018-02-22T23:00:48.061Z,-2.50
2018-02-22T23:03:14.314Z,-2.60
2018-02-22T23:05:40.963Z,-2.60
2018-02-22T23:08:07.186Z,-2.70
2018-02-22T23:10:33.371Z,-2.80
2018-02-22T23:12:59.596Z,-2.90
2018-02-22T23:15:25.792Z,-3.00
2018-02-22T23:17:52.008Z,-3.10
2018-02-22T23:20:18.197Z,-3.20
2018-02-22T23:22:44.415Z,-3.20
2018-02-22T23:25:10.669Z,-3.30
2018-02-22T23:27:36.900Z,-3.40
2018-02-22T23:30:03.152Z,-3.40
2018-02-22T23:32:29.368Z,-3.40
2018-02-22T23:34:55.577Z,-3.50
2018-02-22T23:37:21.825Z,-3.50
2018-02-22T23:39:48.037Z,-3.50
2018-02-22T23:42:17.249Z,-3.60
2018-02-22T23:44:43.465Z,-3.70
2018-02-22T23:47:09.727Z,-3.70
2018-02-22T23:49:35.935Z,-3.70
2018-02-22T23:52:02.385Z,-3.70
2018-02-22T23:54:28.595Z,-3.70
2018-02-22T23:56:54.816Z,-3.80
2018-02-22T23:59:21.052Z,-3.90
